createdAt,value
2023-02-19T00:01:31.552Z,81.55
2023-02-19T00:03:59.213Z,81.53
2023-02-19T00:06:26.876Z,81.35
2023-02-19T00:08:54.536Z,80.93
2023-02-19T00:11:22.304Z,80.91
2023-02-19T00:13:50.067Z,80.66
2023-02-19T00:16:17.837Z,80.86
2023-02-19T00:18:45.592Z,80.78
2023-02-19T00:21:13.274Z,80.67
2023-02-19T00:23:41.028Z,80.79
2023-02-19T00:26:17.678Z,80.80
2023-02-19T00:28:46.171Z,80.90
2023-02-19T00:31:14.284Z,81.18
2023-02-19T00:33:42.216Z,80.95
2023-02-19T00:36:09.978Z,80.99
2023-02-19T00:38:37.953Z,80.95
2023-02-19T00:41:25.901Z,81.15
2023-02-19T00:43:53.649Z,81.55
2023-02-19T00:46:21.700Z,81.39
2023-02-19T00:48:49.586Z,81.80
2023-02-19T00:51:17.251Z,82.02
2023-02-19T00:53:44.912Z,82.01
2023-02-19T00:56:12.584Z,82.09
2023-02-19T00:58:40.236Z,82.09
2023-02-19T01:01:08.212Z,81.77
2023-02-19T01:03:36.171Z,81.98
2023-02-19T01:06:03.839Z,82.13
2023-02-19T01:08:31.605Z,82.23
2023-02-19T01:10:59.367Z,82.24
2023-02-19T01:13:27.120Z,82.21
2023-02-19T01:15:54.795Z,82.30
2023-02-19T01:18:22.544Z,82.02
2023-02-19T01:20:50.309Z,82.17
2023-02-19T01:23:17.975Z,82.29
2023-02-19T01:25:45.630Z,82.17
2023-02-19T01:28:13.598Z,82.37
2023-02-19T01:30:41.372Z,82.11
2023-02-19T01:33:09.026Z,82.17
2023-02-19T01:35:36.686Z,82.03
2023-02-19T01:38:04.470Z,81.91
2023-02-19T01:40:32.123Z,82.11
2023-02-19T01:42:59.877Z,82.04
2023-02-19T01:45:27.645Z,82.13
2023-02-19T01:47:55.303Z,82.31
2023-02-19T01:50:22.965Z,82.19
2023-02-19T01:52:50.628Z,81.87
2023-02-19T01:55:18.288Z,81.64
2023-02-19T01:57:45.954Z,81.60
2023-02-19T02:00:13.715Z,81.52
2023-02-19T02:02:41.460Z,81.50
2023-02-19T02:05:09.143Z,81.38
2023-02-19T02:07:55.847Z,81.47
2023-02-19T02:10:24.128Z,81.62
2023-02-19T02:12:51.888Z,81.66
2023-02-19T02:15:19.756Z,81.54
2023-02-19T02:17:47.624Z,81.47
2023-02-19T02:20:15.414Z,81.78
2023-02-19T02:22:43.156Z,82.05
2023-02-19T02:25:10.921Z,81.94
2023-02-19T02:27:38.683Z,81.84
2023-02-19T02:30:06.379Z,82.09
2023-02-19T02:32:34.105Z,81.73
2023-02-19T02:35:01.773Z,81.15
2023-02-19T02:37:29.435Z,81.17
2023-02-19T02:39:57.090Z,81.12
2023-02-19T02:42:27.789Z,81.15
2023-02-19T02:45:14.123Z,81.16
2023-02-19T02:47:41.791Z,81.40
2023-02-19T02:50:09.651Z,81.23
2023-02-19T02:52:56.152Z,80.77
2023-02-19T02:55:23.815Z,80.85
2023-02-19T02:57:51.440Z,80.93
2023-02-19T03:00:19.148Z,81.10
2023-02-19T03:02:46.799Z,81.12
2023-02-19T03:05:33.303Z,81.48
2023-02-19T03:08:00.962Z,81.79
2023-02-19T03:10:28.626Z,81.54
2023-02-19T03:13:14.925Z,81.61
2023-02-19T03:16:21.419Z,81.59
2023-02-19T03:19:07.898Z,81.81
2023-02-19T03:21:36.379Z,81.94
2023-02-19T03:24:22.675Z,81.99
2023-02-19T03:26:54.180Z,81.59
2023-02-19T03:29:26.193Z,81.63
2023-02-19T03:31:54.142Z,81.61
2023-02-19T03:34:22.033Z,81.68
2023-02-19T03:36:49.790Z,81.56
2023-02-19T03:39:17.452Z,81.42
2023-02-19T03:41:45.156Z,81.30
2023-02-19T03:44:12.874Z,81.37
2023-02-19T03:46:40.538Z,81.21
2023-02-19T03:49:08.201Z,81.24
2023-02-19T03:51:38.214Z,81.17
2023-02-19T03:54:05.877Z,81.08
2023-02-19T03:56:34.059Z,80.98
2023-02-19T03:59:01.832Z,81.22
2023-02-19T04:01:29.582Z,81.43
2023-02-19T04:03:57.346Z,81.47
2023-02-19T04:06:25.008Z,81.62
2023-02-19T04:08:52.673Z,81.47
2023-02-19T04:11:20.437Z,81.37
2023-02-19T04:13:48.201Z,81.35
2023-02-19T04:16:15.870Z,81.35
2023-02-19T04:18:43.518Z,81.38
2023-02-19T04:21:11.407Z,81.24
2023-02-19T04:23:39.359Z,81.32
2023-02-19T04:26:08.255Z,81.22
2023-02-19T04:28:36.019Z,81.08
2023-02-19T04:31:03.747Z,81.12
2023-02-19T04:33:31.538Z,81.13
2023-02-19T04:35:59.196Z,81.26
2023-02-19T04:38:26.858Z,81.21
2023-02-19T04:40:54.523Z,81.45
2023-02-19T04:43:22.282Z,81.45
2023-02-19T04:45:49.972Z,81.35
2023-02-19T04:48:17.708Z,81.24
2023-02-19T04:50:45.472Z,81.59
2023-02-19T04:53:13.140Z,81.57
2023-02-19T04:55:40.795Z,81.55
2023-02-19T04:58:08.464Z,81.61
2023-02-19T05:00:36.132Z,81.59
2023-02-19T05:03:03.778Z,81.41
2023-02-19T05:05:31.551Z,81.33
2023-02-19T05:07:59.203Z,81.53
2023-02-19T05:10:26.871Z,81.35
2023-02-19T05:12:56.294Z,81.42
2023-02-19T05:15:25.575Z,81.54
2023-02-19T05:17:53.230Z,81.61
2023-02-19T05:20:23.154Z,81.58
2023-02-19T05:22:50.913Z,81.67
2023-02-19T05:25:18.578Z,81.81
2023-02-19T05:27:46.336Z,81.77
2023-02-19T05:30:14.032Z,81.78
2023-02-19T05:32:41.870Z,81.94
2023-02-19T05:35:09.626Z,81.99
2023-02-19T05:37:37.289Z,81.94
2023-02-19T05:40:05.052Z,81.73
2023-02-19T05:42:32.824Z,81.78
2023-02-19T05:45:00.485Z,81.82
2023-02-19T05:47:28.342Z,81.80
2023-02-19T05:49:56.003Z,81.95
2023-02-19T05:52:23.618Z,82.08
2023-02-19T05:54:51.333Z,81.99
2023-02-19T05:57:20.656Z,82.12
2023-02-19T05:59:48.392Z,81.94
2023-02-19T06:02:16.062Z,82.60
2023-02-19T06:04:43.828Z,82.66
2023-02-19T06:07:11.583Z,83.26
2023-02-19T06:09:39.361Z,83.44
2023-02-19T06:12:08.236Z,83.55
2023-02-19T06:14:36.003Z,83.42
2023-02-19T06:17:03.612Z,83.62
2023-02-19T06:19:31.232Z,84.09
2023-02-19T06:21:58.984Z,84.08
2023-02-19T06:24:26.646Z,84.21
2023-02-19T06:26:54.309Z,84.15
2023-02-19T06:29:21.970Z,84.29
2023-02-19T06:31:49.725Z,84.63
2023-02-19T06:34:17.503Z,85.19
2023-02-19T06:36:45.266Z,85.38
2023-02-19T06:39:12.930Z,85.25
2023-02-19T06:41:40.593Z,85.17
2023-02-19T06:44:08.355Z,85.21
2023-02-19T06:46:36.358Z,85.19
2023-02-19T06:49:04.087Z,85.64
2023-02-19T06:51:33.013Z,86.25
2023-02-19T06:54:02.485Z,86.21
2023-02-19T06:56:30.249Z,86.19
2023-02-19T06:58:58.214Z,86.39
2023-02-19T07:01:25.885Z,86.67
2023-02-19T07:03:53.680Z,86.95
2023-02-19T07:06:21.404Z,87.07
2023-02-19T07:08:49.181Z,87.19
2023-02-19T07:11:17.235Z,86.84
2023-02-19T07:13:45.001Z,86.78
2023-02-19T07:16:12.684Z,87.02
2023-02-19T07:18:40.425Z,86.71
2023-02-19T07:21:08.369Z,86.99
2023-02-19T07:23:36.258Z,86.77
2023-02-19T07:26:03.923Z,86.64
2023-02-19T07:28:31.597Z,86.65
2023-02-19T07:30:59.268Z,86.75
2023-02-19T07:33:27.009Z,86.95
2023-02-19T07:35:54.772Z,86.69
2023-02-19T07:38:22.445Z,86.73
2023-02-19T07:40:50.098Z,86.59
2023-02-19T07:43:17.759Z,86.54
2023-02-19T07:45:45.434Z,86.67
2023-02-19T07:48:13.092Z,86.70
2023-02-19T07:50:40.949Z,86.60
2023-02-19T07:53:08.612Z,86.74
2023-02-19T07:55:36.380Z,86.47
2023-02-19T07:58:06.123Z,86.45
2023-02-19T08:00:34.068Z,86.54
2023-02-19T08:03:01.766Z,86.46
2023-02-19T08:05:30.811Z,86.24
2023-02-19T08:07:58.531Z,86.50
2023-02-19T08:10:45.183Z,86.13
2023-02-19T08:13:28.200Z,86.21
2023-02-19T08:16:01.674Z,86.30
2023-02-19T08:18:35.325Z,86.25
2023-02-19T08:21:03.072Z,86.40
2023-02-19T08:23:30.827Z,85.81
2023-02-19T08:25:58.591Z,86.17
2023-02-19T08:28:26.364Z,86.07
2023-02-19T08:30:54.134Z,86.19
2023-02-19T08:33:21.985Z,86.21
2023-02-19T08:35:49.753Z,86.48
2023-02-19T08:38:17.513Z,86.62
2023-02-19T08:40:45.994Z,86.47
2023-02-19T08:43:13.655Z,86.57
2023-02-19T08:45:41.382Z,86.61
2023-02-19T08:48:09.285Z,87.15
2023-02-19T08:50:36.945Z,86.97
2023-02-19T08:53:04.606Z,86.88
2023-02-19T08:55:32.270Z,87.06
2023-02-19T08:58:00.132Z,87.78
2023-02-19T09:00:28.101Z,87.95
2023-02-19T09:02:55.763Z,87.77
2023-02-19T09:05:23.527Z,87.82
2023-02-19T09:07:51.190Z,87.74
2023-02-19T09:10:18.849Z,87.51
2023-02-19T09:12:46.511Z,87.61
2023-02-19T09:15:14.318Z,87.59
2023-02-19T09:17:42.140Z,87.84
2023-02-19T09:20:10.727Z,88.04
2023-02-19T09:22:38.490Z,88.58
2023-02-19T09:25:06.257Z,88.54
2023-02-19T09:27:34.020Z,88.36
2023-02-19T09:30:01.813Z,88.39
2023-02-19T09:32:29.548Z,88.26
2023-02-19T09:34:57.315Z,88.48
2023-02-19T09:37:24.973Z,88.05
2023-02-19T09:39:52.636Z,87.58
2023-02-19T09:42:20.407Z,86.69
2023-02-19T09:44:48.475Z,86.63
2023-02-19T09:47:16.239Z,86.79
2023-02-19T09:49:50.049Z,87.34
2023-02-19T09:52:18.524Z,87.16
2023-02-19T09:54:46.292Z,87.13
2023-02-19T09:57:13.945Z,87.07
2023-02-19T09:59:42.035Z,87.08
2023-02-19T10:02:09.676Z,86.91
2023-02-19T10:04:37.441Z,86.85
2023-02-19T10:07:05.101Z,86.81
2023-02-19T10:09:32.967Z,86.59
2023-02-19T10:12:00.740Z,86.92
2023-02-19T10:14:28.575Z,87.05
2023-02-19T10:16:56.466Z,87.35
2023-02-19T10:19:24.125Z,87.28
2023-02-19T10:21:51.782Z,86.19
2023-02-19T10:24:19.447Z,86.22
2023-02-19T10:26:47.108Z,86.48
2023-02-19T10:29:14.781Z,86.19
2023-02-19T10:31:42.504Z,86.48
2023-02-19T10:34:10.302Z,86.49
2023-02-19T10:36:37.963Z,86.46
2023-02-19T10:39:05.624Z,85.48
2023-02-19T10:41:33.285Z,85.44
2023-02-19T10:44:00.956Z,85.19
2023-02-19T10:46:28.639Z,84.94
2023-02-19T10:48:56.479Z,84.97
2023-02-19T10:51:25.570Z,85.06
2023-02-19T10:53:53.232Z,84.34
2023-02-19T10:56:20.901Z,84.15
2023-02-19T10:58:48.565Z,84.23
2023-02-19T11:01:16.328Z,84.17
2023-02-19T11:03:44.083Z,84.35
2023-02-19T11:06:11.853Z,83.94
2023-02-19T11:08:39.610Z,83.82
2023-02-19T11:11:07.275Z,83.92
2023-02-19T11:13:38.140Z,83.90
2023-02-19T11:16:05.894Z,84.28
2023-02-19T11:18:35.078Z,84.57
2023-02-19T11:21:02.749Z,84.60
2023-02-19T11:23:30.501Z,84.84
2023-02-19T11:25:58.258Z,84.76
2023-02-19T11:28:25.919Z,85.03
2023-02-19T11:30:53.581Z,84.67
2023-02-19T11:33:24.027Z,84.87
2023-02-19T11:35:51.772Z,85.17
2023-02-19T11:38:19.850Z,85.60
2023-02-19T11:40:47.712Z,85.52
2023-02-19T11:43:15.478Z,84.86
2023-02-19T11:45:43.139Z,84.45
2023-02-19T11:48:10.919Z,84.61
2023-02-19T11:50:38.568Z,84.71
2023-02-19T11:53:06.231Z,84.83
2023-02-19T11:55:33.882Z,84.55
2023-02-19T11:58:01.549Z,85.25
2023-02-19T12:00:29.315Z,85.66
2023-02-19T12:02:57.793Z,85.52
2023-02-19T12:05:27.053Z,85.34
2023-02-19T12:07:55.680Z,85.26
2023-02-19T12:10:23.336Z,85.55
2023-02-19T12:12:51.717Z,85.88
2023-02-19T12:15:20.402Z,85.49
2023-02-19T12:17:48.068Z,84.86
2023-02-19T12:20:15.825Z,84.91
2023-02-19T12:22:43.491Z,84.36
2023-02-19T12:25:11.152Z,84.30
2023-02-19T12:27:38.914Z,83.68
2023-02-19T12:30:06.582Z,83.49
2023-02-19T12:32:34.544Z,83.08
2023-02-19T12:35:02.212Z,82.52
2023-02-19T12:37:29.866Z,82.58
2023-02-19T12:39:57.534Z,82.62
2023-02-19T12:42:25.189Z,82.92
2023-02-19T12:44:53.054Z,83.04
2023-02-19T12:47:20.818Z,82.61
2023-02-19T12:49:48.479Z,83.01
2023-02-19T12:52:16.244Z,82.66
2023-02-19T12:54:43.911Z,82.38
2023-02-19T12:57:11.678Z,82.13
2023-02-19T12:59:39.336Z,82.16
2023-02-19T13:02:07.009Z,82.65
2023-02-19T13:04:34.762Z,82.62
2023-02-19T13:07:02.625Z,82.16
2023-02-19T13:09:30.638Z,82.49
2023-02-19T13:11:58.468Z,81.64
2023-02-19T13:14:26.233Z,81.68
2023-02-19T13:16:54.204Z,81.57
2023-02-19T13:19:21.953Z,81.14
2023-02-19T13:22:08.367Z,81.34
2023-02-19T13:24:36.132Z,81.38
2023-02-19T13:27:04.301Z,81.11
2023-02-19T13:29:31.964Z,80.67
2023-02-19T13:31:59.783Z,80.97
2023-02-19T13:34:27.590Z,80.89
2023-02-19T13:36:55.254Z,80.67
2023-02-19T13:39:23.014Z,81.00
2023-02-19T13:41:50.780Z,81.50
2023-02-19T13:44:18.442Z,81.45
2023-02-19T13:46:46.107Z,81.52
2023-02-19T13:49:13.867Z,81.16
2023-02-19T13:51:41.633Z,81.06
2023-02-19T13:54:09.291Z,81.30
2023-02-19T13:56:36.953Z,81.58
2023-02-19T13:59:05.843Z,81.19
2023-02-19T14:01:33.518Z,81.12
2023-02-19T14:04:01.268Z,81.19
2023-02-19T14:06:28.933Z,81.20
2023-02-19T14:08:57.195Z,80.88
2023-02-19T14:11:24.910Z,80.01
2023-02-19T14:13:52.733Z,80.18
2023-02-19T14:16:20.396Z,80.08
2023-02-19T14:18:50.617Z,80.02
2023-02-19T14:21:18.382Z,80.12
2023-02-19T14:23:46.004Z,79.68
2023-02-19T14:26:13.701Z,79.76
2023-02-19T14:28:41.368Z,79.36
2023-02-19T14:31:09.272Z,79.71
2023-02-19T14:33:37.810Z,79.23
2023-02-19T14:36:06.207Z,79.49
2023-02-19T14:38:33.956Z,78.91
2023-02-19T14:41:01.721Z,78.75
2023-02-19T14:43:29.483Z,78.82
2023-02-19T14:45:57.297Z,78.72
2023-02-19T14:48:25.251Z,78.35
2023-02-19T14:50:52.979Z,78.49
2023-02-19T14:53:20.744Z,78.63
2023-02-19T14:55:48.511Z,78.57
2023-02-19T14:58:16.174Z,78.25
2023-02-19T15:00:44.028Z,77.91
2023-02-19T15:03:11.695Z,77.60
2023-02-19T15:05:39.470Z,78.04
2023-02-19T15:08:07.224Z,78.17
2023-02-19T15:10:34.884Z,78.22
2023-02-19T15:13:04.800Z,78.44
2023-02-19T15:15:33.182Z,78.99
2023-02-19T15:18:00.872Z,78.94
2023-02-19T15:20:28.600Z,79.50
2023-02-19T15:22:56.368Z,79.52
2023-02-19T15:25:24.029Z,78.95
2023-02-19T15:27:51.693Z,79.08
2023-02-19T15:30:19.589Z,79.41
2023-02-19T15:32:47.323Z,79.16
2023-02-19T15:35:14.986Z,78.57
2023-02-19T15:37:42.648Z,78.36
2023-02-19T15:40:10.323Z,77.80
2023-02-19T15:42:38.382Z,77.29
2023-02-19T15:45:06.088Z,77.19
2023-02-19T15:47:33.806Z,77.20
2023-02-19T15:50:01.636Z,76.95
2023-02-19T15:52:29.439Z,76.99
2023-02-19T15:54:57.201Z,76.82
2023-02-19T15:57:24.865Z,77.07
2023-02-19T15:59:52.528Z,76.59
2023-02-19T16:02:20.190Z,76.71
2023-02-19T16:04:47.847Z,77.07
2023-02-19T16:07:15.514Z,77.28
2023-02-19T16:09:43.273Z,76.83
2023-02-19T16:12:10.945Z,77.18
2023-02-19T16:14:38.906Z,77.12
2023-02-19T16:17:07.691Z,77.20
2023-02-19T16:19:35.456Z,77.06
2023-02-19T16:22:03.220Z,76.74
2023-02-19T16:24:30.887Z,76.63
2023-02-19T16:26:59.056Z,76.87
2023-02-19T16:29:26.714Z,76.61
2023-02-19T16:31:54.522Z,77.18
2023-02-19T16:34:22.448Z,77.05
2023-02-19T16:36:50.315Z,76.51
2023-02-19T16:39:18.195Z,75.99
2023-02-19T16:41:46.767Z,76.07
2023-02-19T16:44:14.424Z,76.27
2023-02-19T16:46:42.088Z,76.05
2023-02-19T16:49:10.372Z,76.16
2023-02-19T16:51:38.023Z,76.07
2023-02-19T16:54:06.094Z,76.32
2023-02-19T16:56:33.966Z,76.41
2023-02-19T16:59:01.727Z,76.49
2023-02-19T17:01:29.500Z,75.95
2023-02-19T17:03:57.258Z,75.93
2023-02-19T17:06:25.021Z,76.00
2023-02-19T17:08:52.781Z,75.57
2023-02-19T17:11:20.442Z,75.87
2023-02-19T17:13:48.310Z,75.24
2023-02-19T17:16:16.105Z,75.07
2023-02-19T17:18:43.942Z,75.16
2023-02-19T17:21:11.954Z,75.21
2023-02-19T17:23:39.882Z,75.61
2023-02-19T17:26:07.552Z,75.99
2023-02-19T17:28:35.302Z,75.75
2023-02-19T17:31:02.976Z,75.58
2023-02-19T17:33:30.735Z,75.69
2023-02-19T17:35:58.388Z,75.93
2023-02-19T17:38:26.053Z,75.80
2023-02-19T17:40:53.711Z,75.75
2023-02-19T17:43:21.371Z,75.60
2023-02-19T17:45:49.273Z,75.02
2023-02-19T17:48:17.307Z,74.84
2023-02-19T17:50:45.077Z,74.94
2023-02-19T17:53:12.834Z,74.67
2023-02-19T17:55:40.498Z,74.43
2023-02-19T17:58:08.159Z,74.29
2023-02-19T18:00:36.747Z,74.11
2023-02-19T18:03:04.408Z,74.26
2023-02-19T18:05:32.191Z,73.78
2023-02-19T18:08:00.250Z,74.07
2023-02-19T18:10:27.912Z,73.70
2023-02-19T18:12:55.672Z,72.88
2023-02-19T18:15:23.428Z,74.09
2023-02-19T18:17:51.211Z,73.93
2023-02-19T18:20:19.061Z,74.05
2023-02-19T18:22:46.736Z,74.02
2023-02-19T18:25:14.488Z,74.16
2023-02-19T18:27:42.151Z,74.59
2023-02-19T18:30:09.847Z,74.13
2023-02-19T18:32:37.575Z,74.36
2023-02-19T18:35:05.353Z,74.53
2023-02-19T18:37:34.127Z,74.49
2023-02-19T18:40:01.896Z,74.62
2023-02-19T18:42:29.658Z,74.33
2023-02-19T18:44:57.326Z,74.12
2023-02-19T18:47:28.049Z,74.21
2023-02-19T18:49:55.714Z,74.11
2023-02-19T18:52:25.034Z,74.15
2023-02-19T18:54:52.877Z,74.31
2023-02-19T18:57:20.505Z,74.34
2023-02-19T18:59:48.206Z,74.26
2023-02-19T19:02:15.977Z,74.40
2023-02-19T19:04:43.734Z,74.33
2023-02-19T19:07:11.503Z,74.03
2023-02-19T19:09:39.265Z,74.11
2023-02-19T19:12:07.022Z,74.08
2023-02-19T19:14:34.890Z,73.78
2023-02-19T19:17:02.658Z,73.71
2023-02-19T19:19:30.729Z,74.25
2023-02-19T19:21:58.388Z,74.12
2023-02-19T19:24:26.068Z,73.81
2023-02-19T19:26:53.777Z,73.80
2023-02-19T19:29:22.304Z,73.34
2023-02-19T19:31:50.386Z,73.30
2023-02-19T19:34:18.132Z,73.39
2023-02-19T19:36:45.895Z,73.32
2023-02-19T19:39:13.656Z,72.80
2023-02-19T19:41:41.419Z,73.14
2023-02-19T19:44:09.086Z,72.52
2023-02-19T19:46:36.881Z,73.18
2023-02-19T19:49:04.710Z,72.86
2023-02-19T19:51:32.486Z,72.67
2023-02-19T19:54:01.181Z,72.70
2023-02-19T19:56:28.821Z,72.66
2023-02-19T19:58:56.485Z,72.67
2023-02-19T20:01:24.356Z,72.82
2023-02-19T20:03:52.221Z,73.21
2023-02-19T20:06:19.882Z,72.99
2023-02-19T20:08:47.744Z,72.86
2023-02-19T20:11:15.406Z,73.25
2023-02-19T20:13:43.173Z,73.37
2023-02-19T20:16:12.537Z,73.25
2023-02-19T20:18:40.270Z,73.32
2023-02-19T20:21:08.003Z,73.69
2023-02-19T20:23:35.759Z,73.74
2023-02-19T20:26:05.573Z,73.58
2023-02-19T20:28:33.187Z,73.62
2023-02-19T20:31:01.161Z,73.60
2023-02-19T20:33:28.762Z,73.66
2023-02-19T20:35:57.248Z,73.94
2023-02-19T20:38:25.008Z,74.17
2023-02-19T20:40:52.770Z,74.37
2023-02-19T20:43:20.581Z,74.09
2023-02-19T20:45:48.611Z,73.87
2023-02-19T20:48:16.272Z,73.82
2023-02-19T20:50:44.032Z,73.69
2023-02-19T20:53:11.807Z,73.79
2023-02-19T20:55:39.666Z,73.91
2023-02-19T20:58:07.429Z,73.71
2023-02-19T21:00:35.195Z,73.68
2023-02-19T21:03:03.045Z,73.97
2023-02-19T21:05:30.920Z,74.00
2023-02-19T21:07:58.583Z,74.01
2023-02-19T21:10:26.247Z,73.60
2023-02-19T21:12:54.661Z,73.63
2023-02-19T21:15:22.296Z,73.89
2023-02-19T21:17:50.049Z,73.99
2023-02-19T21:20:21.090Z,73.98
2023-02-19T21:22:48.752Z,73.55
2023-02-19T21:25:16.411Z,73.96
2023-02-19T21:27:44.177Z,73.79
2023-02-19T21:30:11.924Z,74.04
2023-02-19T21:32:39.723Z,73.77
2023-02-19T21:35:07.472Z,73.58
2023-02-19T21:37:35.643Z,73.76
2023-02-19T21:40:03.408Z,73.87
2023-02-19T21:42:31.375Z,74.06
2023-02-19T21:44:59.142Z,73.95
2023-02-19T21:47:29.259Z,74.09
2023-02-19T21:49:56.920Z,74.16
2023-02-19T21:52:24.579Z,74.18
2023-02-19T21:54:52.344Z,73.98
2023-02-19T21:57:20.018Z,73.86
2023-02-19T21:59:47.771Z,74.07
2023-02-19T22:02:15.531Z,74.16
2023-02-19T22:04:43.295Z,74.35
2023-02-19T22:07:11.161Z,74.33
2023-02-19T22:09:39.539Z,74.21
2023-02-19T22:12:07.302Z,73.93
2023-02-19T22:14:34.973Z,74.13
2023-02-19T22:17:02.728Z,74.20
2023-02-19T22:19:30.357Z,74.19
2023-02-19T22:21:58.057Z,73.76
2023-02-19T22:24:25.713Z,73.86
2023-02-19T22:26:53.378Z,73.85
2023-02-19T22:29:21.140Z,73.84
2023-02-19T22:31:48.948Z,74.09
2023-02-19T22:34:16.772Z,73.69
2023-02-19T22:36:44.532Z,73.67
2023-02-19T22:39:12.297Z,73.93
2023-02-19T22:41:39.958Z,73.78
2023-02-19T22:44:07.620Z,74.00
2023-02-19T22:46:35.287Z,74.05
2023-02-19T22:49:03.157Z,73.91
2023-02-19T22:51:30.811Z,73.86
2023-02-19T22:53:58.469Z,73.78
2023-02-19T22:56:26.212Z,73.87
2023-02-19T22:58:53.895Z,74.06
2023-02-19T23:01:21.579Z,74.05
2023-02-19T23:03:49.405Z,74.19
2023-02-19T23:06:17.196Z,74.52
2023-02-19T23:08:44.961Z,74.50
2023-02-19T23:11:12.625Z,74.78
2023-02-19T23:13:40.387Z,74.65
2023-02-19T23:16:08.045Z,74.60
2023-02-19T23:18:35.710Z,74.63
2023-02-19T23:21:03.368Z,74.86
2023-02-19T23:23:31.036Z,74.74
2023-02-19T23:25:58.695Z,75.09
2023-02-19T23:28:26.355Z,75.15
2023-02-19T23:30:54.186Z,75.17
2023-02-19T23:33:21.986Z,75.31
2023-02-19T23:35:49.619Z,75.44
2023-02-19T23:38:17.309Z,75.33
2023-02-19T23:40:45.683Z,75.29
2023-02-19T23:43:13.341Z,75.19
2023-02-19T23:45:41.060Z,75.28
2023-02-19T23:48:08.871Z,75.43
2023-02-19T23:50:36.530Z,75.59
2023-02-19T23:53:04.190Z,75.65
2023-02-19T23:55:31.853Z,75.75
2023-02-19T23:57:59.616Z,75.78
